Time;durP1;ratioP1;P1;durP2;ratioP2;P2;SDS_P1;SDS_P2;PMS_P1;PMS_P2;Temp;Humidity;BMP_temperature;BMP_pressure;BME280_temperature;BME280_humidity;BME280_pressure;Samples;Min_cycle;Max_cycle;Signal;HPM_P1;HPM_P2
2021/12/18 00:01:57;;;;;;;10.75;5.90;;;;;;;-0.76;100.00;98612.34;5055035;28;20106;-71
2021/12/18 00:04:23;;;;;;;11.88;6.47;;;;;;;-0.70;100.00;98619.69;5056002;28;20284;-72
2021/12/18 00:06:48;;;;;;;12.25;6.28;;;;;;;-0.64;100.00;98613.94;5053484;28;20045;-72
2021/12/18 00:09:14;;;;;;;12.57;5.63;;;;;;;-0.68;100.00;98602.84;5054688;28;20032;-71
2021/12/18 00:11:41;;;;;;;8.68;4.75;;;;;;;-0.65;100.00;98609.66;5056418;28;20036;-72
2021/12/18 00:14:06;;;;;;;10.77;5.65;;;;;;;-0.67;100.00;98599.25;5053823;28;20069;-71
2021/12/18 00:16:32;;;;;;;24.52;7.78;;;;;;;-0.62;100.00;98598.91;5052667;28;20062;-74
2021/12/18 00:18:58;;;;;;;19.55;7.03;;;;;;;-0.58;100.00;98597.66;5054861;28;20044;-71
2021/12/18 00:21:25;;;;;;;17.08;7.32;;;;;;;-0.61;100.00;98598.75;5053664;28;20076;-71
2021/12/18 00:23:51;;;;;;;20.15;7.40;;;;;;;-0.60;100.00;98591.72;5057300;28;20136;-71
2021/12/18 00:26:18;;;;;;;17.60;7.03;;;;;;;-0.65;100.00;98585.97;5056093;28;20033;-71
2021/12/18 00:28:44;;;;;;;15.43;6.30;;;;;;;-0.62;100.00;98585.75;5058548;28;20068;-71
2021/12/18 00:31:10;;;;;;;16.85;5.90;;;;;;;-0.59;100.00;98588.94;5051790;28;20506;-71
2021/12/18 00:33:36;;;;;;;13.23;5.90;;;;;;;-0.59;100.00;98596.00;5055503;28;20421;-71
2021/12/18 00:36:02;;;;;;;13.98;5.90;;;;;;;-0.60;100.00;98589.06;5054584;28;20072;-71
2021/12/18 00:38:29;;;;;;;13.02;5.35;;;;;;;-0.59;100.00;98586.31;5054828;28;20047;-71
2021/12/18 00:43:35;;;;;;;12.05;5.95;;;;;;;-0.56;100.00;98595.72;5055900;28;20040;-72
2021/12/18 00:46:01;;;;;;;14.27;5.57;;;;;;;-0.57;100.00;98588.81;5054439;28;20105;-72
2021/12/18 00:48:27;;;;;;;13.75;5.60;;;;;;;-0.59;100.00;98590.75;5053152;28;20460;-72
2021/12/18 00:50:53;;;;;;;13.68;5.85;;;;;;;-0.56;100.00;98591.31;5055123;28;20039;-73
2021/12/18 00:53:19;;;;;;;26.40;11.23;;;;;;;-0.53;100.00;98589.41;5054088;28;20476;-73
2021/12/18 00:55:46;;;;;;;17.27;8.55;;;;;;;-0.50;100.00;98583.88;5055005;28;20068;-71
2021/12/18 00:58:12;;;;;;;15.05;6.93;;;;;;;-0.54;100.00;98580.69;5055360;28;20029;-72
2021/12/18 01:00:41;;;;;;;12.60;6.05;;;;;;;-0.60;100.00;98589.06;5054519;28;20094;-72
2021/12/18 01:03:15;;;;;;;13.80;5.30;;;;;;;-0.60;100.00;98594.34;5056539;28;20044;-71
2021/12/18 01:05:41;;;;;;;9.35;4.90;;;;;;;-0.62;100.00;98591.00;5054019;28;20048;-72
2021/12/18 01:08:07;;;;;;;10.25;5.60;;;;;;;-0.73;100.00;98588.41;5053982;28;20111;-73
2021/12/18 01:13:16;;;;;;;11.77;6.15;;;;;;;-0.85;100.00;98595.50;5055270;28;20132;-72
2021/12/18 01:15:48;;;;;;;10.05;5.68;;;;;;;-0.81;100.00;98594.28;5055222;28;20517;-71
2021/12/18 01:23:42;;;;;;;9.35;4.95;;;;;;;-0.99;100.00;98587.91;5059355;28;20383;-71
2021/12/18 01:26:07;;;;;;;9.93;5.45;;;;;;;-0.94;100.00;98601.50;5060735;28;20036;-72
2021/12/18 01:28:33;;;;;;;11.98;5.88;;;;;;;-0.90;100.00;98593.25;5058371;28;20425;-72
2021/12/18 01:31:00;;;;;;;12.77;6.40;;;;;;;-0.95;100.00;98589.31;5058358;28;20070;-71
2021/12/18 01:33:25;;;;;;;12.93;5.90;;;;;;;-0.92;100.00;98589.09;5059933;28;20495;-74
2021/12/18 01:35:53;;;;;;;12.13;6.13;;;;;;;-0.96;100.00;98600.78;5059851;28;20345;-71
2021/12/18 01:38:21;;;;;;;16.60;6.85;;;;;;;-0.90;100.00;98593.25;5057142;28;20062;-72
2021/12/18 01:40:47;;;;;;;14.00;6.70;;;;;;;-0.89;100.00;98594.91;5059737;28;20033;-72
2021/12/18 01:46:10;;;;;;;47.30;7.82;;;;;;;-0.85;100.00;98596.34;5057366;28;20060;-72
2021/12/18 01:51:20;;;;;;;41.28;7.80;;;;;;;-0.89;100.00;98602.78;5063655;28;20253;-71
2021/12/18 01:53:48;;;;;;;122.15;10.48;;;;;;;-0.74;100.00;98607.78;5064155;28;20040;-74
2021/12/18 01:56:14;;;;;;;48.40;8.27;;;;;;;-0.69;100.00;98610.88;5060117;28;20736;-73
2021/12/18 01:58:43;;;;;;;308.27;18.60;;;;;;;-0.63;100.00;98600.66;5061987;28;20044;-72
2021/12/18 02:01:09;;;;;;;463.10;27.20;;;;;;;-0.59;100.00;98596.84;5060197;28;20041;-73
2021/12/18 02:03:35;;;;;;;275.25;17.08;;;;;;;-0.58;100.00;98602.94;5059041;28;20032;-71
2021/12/18 02:06:00;;;;;;;357.92;16.75;;;;;;;-0.59;100.00;98601.25;5057400;28;20043;-71
2021/12/18 02:08:32;;;;;;;325.23;17.45;;;;;;;-0.62;100.00;98602.34;5043085;28;20036;-73
2021/12/18 02:21:57;;;;;;;18.13;6.75;;;;;;;-0.93;100.00;98603.19;5059062;28;20051;-71
2021/12/18 02:24:26;;;;;;;12.30;6.07;;;;;;;-0.96;100.00;98609.50;5058111;28;20406;-72
2021/12/18 02:26:51;;;;;;;17.27;6.28;;;;;;;-1.04;100.00;98590.91;5058847;28;20146;-72
2021/12/18 02:29:17;;;;;;;11.70;5.70;;;;;;;-1.08;100.00;98602.63;5059489;28;20105;-72
2021/12/18 02:31:45;;;;;;;53.70;6.95;;;;;;;-1.07;100.00;98604.28;5056860;28;20048;-73
2021/12/18 02:34:18;;;;;;;159.35;10.95;;;;;;;-1.06;100.00;98607.75;5057821;28;20456;-72
2021/12/18 02:36:47;;;;;;;193.40;14.48;;;;;;;-0.95;100.00;98599.81;5058330;28;20043;-73
2021/12/18 02:42:09;;;;;;;48.10;8.38;;;;;;;-0.99;100.00;98590.53;5056347;28;20975;-74
2021/12/18 02:44:41;;;;;;;45.80;8.48;;;;;;;-0.94;100.00;98583.94;5057266;28;20032;-72
2021/12/18 02:47:08;;;;;;;20.58;7.32;;;;;;;-0.88;100.00;98588.69;5056893;28;20040;-73
2021/12/18 02:49:34;;;;;;;28.40;7.50;;;;;;;-0.89;100.00;98591.44;5058967;28;20040;-72
2021/12/18 02:51:59;;;;;;;91.22;9.45;;;;;;;-0.94;100.00;98581.28;5057089;28;20098;-71
2021/12/18 02:54:26;;;;;;;121.93;10.15;;;;;;;-1.01;100.00;98590.66;5058739;28;20033;-71
2021/12/18 02:56:53;;;;;;;63.05;8.93;;;;;;;-0.96;100.00;98577.97;5055329;28;20426;-71
2021/12/18 02:59:20;;;;;;;130.63;10.80;;;;;;;-0.96;100.00;98583.22;5058609;28;20031;-73
2021/12/18 03:01:46;;;;;;;95.45;9.23;;;;;;;-0.92;100.00;98575.94;5056226;28;20482;-72
2021/12/18 03:04:22;;;;;;;154.63;13.60;;;;;;;-0.99;100.00;98575.59;5057356;28;20037;-72
2021/12/18 03:06:53;;;;;;;78.90;9.07;;;;;;;-0.95;100.00;98578.78;5059169;28;20039;-72
2021/12/18 03:25:34;;;;;;;11.98;5.18;;;;;;;-0.96;100.00;98575.34;5055999;28;20037;-71
2021/12/18 03:28:02;;;;;;;12.07;5.13;;;;;;;-0.99;100.00;98580.84;5056558;28;20062;-73
2021/12/18 03:30:28;;;;;;;8.90;4.57;;;;;;;-1.00;100.00;98575.72;5039464;28;20067;-74
2021/12/18 03:32:54;;;;;;;11.23;5.13;;;;;;;-0.99;100.00;98578.22;5057697;28;20040;-72
2021/12/18 03:35:19;;;;;;;8.65;4.45;;;;;;;-1.03;100.00;98582.03;5057390;28;20075;-72
2021/12/18 03:37:45;;;;;;;13.77;5.15;;;;;;;-1.04;100.00;98590.06;5057657;28;20063;-73
2021/12/18 03:40:15;;;;;;;10.80;5.50;;;;;;;-1.05;100.00;98583.97;5059211;28;20106;-71
2021/12/18 03:42:41;;;;;;;7.53;3.25;;;;;;;-0.91;100.00;98577.59;5055665;28;20053;-73
2021/12/18 03:45:08;;;;;;;15.15;5.88;;;;;;;-0.82;100.00;98586.53;5055852;28;20705;-72
2021/12/18 03:47:35;;;;;;;17.45;6.18;;;;;;;-0.90;100.00;98582.72;5056443;28;20032;-74
2021/12/18 03:50:00;;;;;;;14.45;5.85;;;;;;;-0.91;100.00;98585.50;5057397;28;20531;-72
2021/12/18 03:52:26;;;;;;;26.95;9.13;;;;;;;-0.94;100.00;98594.44;5056494;28;20120;-71
2021/12/18 03:54:52;;;;;;;13.93;6.13;;;;;;;-0.97;100.00;98589.44;5058042;28;20463;-72
2021/12/18 03:57:17;;;;;;;15.85;5.05;;;;;;;-1.01;100.00;98581.91;5058059;28;20093;-72
2021/12/18 03:59:43;;;;;;;10.32;5.13;;;;;;;-1.00;100.00;98579.19;5057139;28;20052;-71
2021/12/18 04:02:08;;;;;;;13.13;5.78;;;;;;;-0.82;100.00;98568.13;5054972;28;20151;-71
2021/12/18 04:04:34;;;;;;;22.10;6.55;;;;;;;-0.68;100.00;98570.47;5057461;28;20111;-71
2021/12/18 04:07:00;;;;;;;138.05;13.70;;;;;;;-0.62;100.00;98580.47;5056220;28;20037;-72
2021/12/18 04:09:28;;;;;;;231.73;10.43;;;;;;;-0.50;100.00;98576.00;5060451;28;20395;-71
2021/12/18 04:11:54;;;;;;;368.48;15.63;;;;;;;-0.44;100.00;98576.31;5055894;28;20475;-72
2021/12/18 04:14:20;;;;;;;331.83;16.85;;;;;;;-0.34;100.00;98581.63;5054107;28;20460;-72
2021/12/18 04:16:46;;;;;;;451.45;17.27;;;;;;;-0.34;100.00;98574.56;5055493;28;20050;-71
2021/12/18 04:19:11;;;;;;;511.60;19.60;;;;;;;-0.26;100.00;98579.19;5056778;28;20484;-71
2021/12/18 04:21:37;;;;;;;440.15;16.58;;;;;;;-0.13;100.00;98566.69;5054834;28;20036;-71
2021/12/18 04:24:03;;;;;;;528.88;22.08;;;;;;;0.00;100.00;98577.03;5055544;28;20033;-71
2021/12/18 04:26:31;;;;;;;514.22;16.40;;;;;;;-0.05;100.00;98571.31;5054585;28;20451;-72
2021/12/18 04:28:57;;;;;;;478.13;22.80;;;;;;;0.03;100.00;98578.53;5054603;28;20033;-74
2021/12/18 04:31:22;;;;;;;469.50;17.95;;;;;;;0.15;100.00;98585.38;5054743;28;20064;-71
2021/12/18 04:33:48;;;;;;;402.23;19.42;;;;;;;0.11;100.00;98584.00;5055130;28;20067;-71
2021/12/18 04:36:14;;;;;;;301.58;12.15;;;;;;;-0.06;100.00;98574.91;5057090;28;20120;-71
2021/12/18 04:38:39;;;;;;;324.70;17.17;;;;;;;-0.29;100.00;98580.31;5055922;28;20581;-71
2021/12/18 04:41:06;;;;;;;191.43;8.57;;;;;;;-0.42;100.00;98573.56;5053663;28;20043;-72
2021/12/18 04:43:31;;;;;;;153.20;6.38;;;;;;;-0.49;100.00;98573.22;5057193;28;20049;-72
2021/12/18 04:45:57;;;;;;;217.25;11.75;;;;;;;-0.48;100.00;98579.31;5055172;28;20407;-71
2021/12/18 04:48:22;;;;;;;142.50;6.88;;;;;;;-0.48;100.00;98581.94;5055917;28;20203;-72
2021/12/18 04:50:48;;;;;;;146.90;6.22;;;;;;;-0.49;100.00;98590.81;5057074;28;20044;-71
2021/12/18 04:53:16;;;;;;;208.85;9.38;;;;;;;-0.47;100.00;98592.34;5055117;28;20036;-74
2021/12/18 04:55:41;;;;;;;193.20;10.13;;;;;;;-0.37;100.00;98593.25;5055925;28;20032;-71
2021/12/18 04:58:07;;;;;;;134.10;6.22;;;;;;;-0.41;100.00;98601.53;5059757;28;20036;-72
2021/12/18 05:00:38;;;;;;;130.25;9.75;;;;;;;-0.34;100.00;98606.16;5060634;28;20033;-74
2021/12/18 05:03:07;;;;;;;109.22;4.68;;;;;;;-0.34;100.00;98605.31;5059152;28;20037;-73
2021/12/18 05:05:33;;;;;;;120.85;4.90;;;;;;;-0.26;100.00;98602.06;5061122;28;20037;-72
2021/12/18 05:08:01;;;;;;;126.95;5.65;;;;;;;-0.10;100.00;98607.69;5059408;28;20036;-72
2021/12/18 05:10:26;;;;;;;87.93;6.57;;;;;;;0.04;100.00;98607.38;5057275;28;20040;-74
2021/12/18 05:12:52;;;;;;;193.23;9.77;;;;;;;0.11;100.00;98598.00;5058549;28;20036;-72
2021/12/18 05:15:17;;;;;;;218.45;12.38;;;;;;;0.19;100.00;98606.06;5059272;28;20055;-71
2021/12/18 05:17:43;;;;;;;121.82;7.03;;;;;;;0.22;100.00;98594.44;5059922;28;20032;-71
2021/12/18 05:20:09;;;;;;;143.07;8.63;;;;;;;0.19;100.00;98597.34;5060600;28;20032;-72
2021/12/18 05:22:34;;;;;;;152.10;10.95;;;;;;;0.08;100.00;98589.50;5061399;28;20061;-72
2021/12/18 05:25:00;;;;;;;148.65;8.90;;;;;;;-0.03;100.00;98583.34;5058239;28;20031;-73
2021/12/18 05:27:25;;;;;;;230.45;11.55;;;;;;;0.04;100.00;98593.38;5061711;28;20040;-71
2021/12/18 05:29:51;;;;;;;81.47;6.50;;;;;;;-0.14;100.00;98591.34;5059358;28;20041;-71
2021/12/18 05:32:17;;;;;;;61.33;6.03;;;;;;;-0.18;100.00;98589.91;5044789;28;20035;-71
2021/12/18 05:34:42;;;;;;;204.93;8.93;;;;;;;-0.04;100.00;98594.84;5059457;28;20490;-71
2021/12/18 05:39:39;;;;;;;102.78;7.00;;;;;;;-0.13;100.00;98593.00;5059960;28;20710;-71
2021/12/18 05:42:05;;;;;;;113.28;7.22;;;;;;;-0.13;100.00;98593.00;5056579;28;20032;-71
2021/12/18 05:44:31;;;;;;;99.35;8.43;;;;;;;-0.04;100.00;98586.97;5058693;28;20044;-72
2021/12/18 05:46:56;;;;;;;190.27;10.13;;;;;;;0.04;100.00;98588.94;5056334;28;20041;-74
2021/12/18 05:49:22;;;;;;;206.75;18.83;;;;;;;0.12;100.00;98589.13;5062455;28;20029;-72
2021/12/18 05:51:48;;;;;;;83.78;5.85;;;;;;;0.12;100.00;98583.84;5049687;28;20047;-71
2021/12/18 05:54:14;;;;;;;79.90;6.03;;;;;;;0.12;100.00;98589.13;5059715;28;20035;-72
2021/12/18 05:56:41;;;;;;;58.72;5.13;;;;;;;0.06;100.00;98594.91;5058450;28;20048;-71
2021/12/18 05:59:07;;;;;;;124.25;6.40;;;;;;;0.03;100.00;98582.00;5062101;28;20052;-74
2021/12/18 06:01:35;;;;;;;74.03;6.10;;;;;;;0.01;100.00;98589.22;5064490;28;20028;-71
2021/12/18 06:04:01;;;;;;;59.40;5.20;;;;;;;-0.10;100.00;98584.00;5063491;28;20036;-73
2021/12/18 06:06:26;;;;;;;76.63;5.97;;;;;;;-0.06;100.00;98585.44;5054774;28;20048;-72
2021/12/18 06:08:52;;;;;;;37.08;5.15;;;;;;;0.01;100.00;98585.75;5043939;28;20456;-73
2021/12/18 06:11:21;;;;;;;36.45;8.43;;;;;;;-0.03;100.00;98586.00;5058898;28;20037;-71
2021/12/18 06:13:51;;;;;;;27.45;5.50;;;;;;;0.01;100.00;98583.94;5058051;28;20260;-71
2021/12/18 06:16:21;;;;;;;73.82;6.10;;;;;;;0.01;100.00;98586.59;5058071;28;20120;-71
2021/12/18 06:18:51;;;;;;;93.13;6.75;;;;;;;-0.01;100.00;98591.94;5058778;28;20477;-71
2021/12/18 06:21:19;;;;;;;53.08;5.80;;;;;;;-0.03;100.00;98588.63;5059044;28;20115;-73
2021/12/18 06:23:47;;;;;;;42.50;5.05;;;;;;;-0.07;100.00;98584.59;5060183;28;20040;-71
2021/12/18 06:26:14;;;;;;;56.50;5.47;;;;;;;-0.07;100.00;98589.03;5057903;28;20041;-71
2021/12/18 06:28:40;;;;;;;85.43;7.10;;;;;;;-0.05;100.00;98595.81;5057624;28;20032;-71
2021/12/18 06:31:06;;;;;;;63.15;6.07;;;;;;;0.02;100.00;98598.78;5056061;28;20076;-71
2021/12/18 06:33:32;;;;;;;96.32;6.18;;;;;;;0.07;100.00;98591.28;5060202;28;20052;-71
2021/12/18 06:35:58;;;;;;;146.95;6.45;;;;;;;0.18;100.00;98595.66;5058866;28;20394;-72
2021/12/18 06:38:24;;;;;;;157.02;7.93;;;;;;;0.21;100.00;98590.97;5056542;28;20047;-71
2021/12/18 06:40:49;;;;;;;140.25;6.40;;;;;;;0.21;100.00;98588.31;5059915;28;20037;-71
2021/12/18 06:43:15;;;;;;;177.57;10.77;;;;;;;0.15;100.00;98595.91;5059815;28;20035;-71
2021/12/18 06:45:41;;;;;;;139.43;6.70;;;;;;;0.19;100.00;98594.69;5057063;28;20033;-71
2021/12/18 06:48:07;;;;;;;133.32;6.32;;;;;;;0.26;100.00;98591.41;5058028;28;20042;-71
2021/12/18 06:50:34;;;;;;;193.38;7.65;;;;;;;0.23;100.00;98583.78;5057701;28;20387;-71
2021/12/18 06:52:59;;;;;;;144.20;7.47;;;;;;;0.21;100.00;98583.06;5040612;28;20041;-71
2021/12/18 06:55:26;;;;;;;61.67;5.30;;;;;;;-0.03;100.00;98585.16;5057107;28;20044;-72
2021/12/18 06:57:51;;;;;;;49.97;5.32;;;;;;;-0.05;100.00;98590.56;5059014;28;20028;-71
2021/12/18 07:00:18;;;;;;;98.43;7.22;;;;;;;-0.09;100.00;98589.13;5058979;28;20444;-71
2021/12/18 07:02:45;;;;;;;71.78;5.72;;;;;;;-0.11;100.00;98588.44;5058066;28;20103;-74
2021/12/18 07:05:10;;;;;;;278.58;15.55;;;;;;;-0.06;100.00;98591.53;5057199;28;20478;-72
2021/12/18 07:07:37;;;;;;;121.22;7.60;;;;;;;-0.14;100.00;98595.78;5058376;28;20036;-73
2021/12/18 07:10:04;;;;;;;254.82;14.23;;;;;;;-0.17;100.00;98588.94;5058839;28;20152;-70
2021/12/18 07:12:30;;;;;;;161.45;9.00;;;;;;;-0.10;100.00;98586.63;5058084;28;20455;-72
2021/12/18 07:14:55;;;;;;;137.63;10.95;;;;;;;-0.06;100.00;98591.53;5057105;28;20036;-71
2021/12/18 07:17:21;;;;;;;151.40;15.57;;;;;;;0.00;100.00;98592.81;5057650;28;20459;-72
2021/12/18 07:19:46;;;;;;;197.48;10.68;;;;;;;0.04;100.00;98594.22;5058231;28;20703;-71
2021/12/18 07:22:14;;;;;;;259.83;13.68;;;;;;;0.08;100.00;98589.50;5055054;28;20115;-71
2021/12/18 07:24:39;;;;;;;321.55;19.13;;;;;;;0.12;100.00;98589.13;5055420;28;20024;-72
2021/12/18 07:27:05;;;;;;;481.90;16.23;;;;;;;0.15;100.00;98596.75;5058525;28;20043;-73
2021/12/18 07:29:31;;;;;;;451.83;17.90;;;;;;;0.19;100.00;98595.53;5057986;28;20031;-71
2021/12/18 07:31:56;;;;;;;604.55;23.05;;;;;;;-0.06;100.00;98593.31;5056558;28;20082;-74
2021/12/18 07:34:22;;;;;;;570.83;19.65;;;;;;;0.02;100.00;98600.56;5056247;28;20495;-71
2021/12/18 07:36:48;;;;;;;620.17;29.70;;;;;;;0.10;100.00;98598.94;5054418;28;20472;-71
2021/12/18 07:39:13;;;;;;;574.47;32.38;;;;;;;0.11;100.00;98602.41;5056368;28;20617;-71
2021/12/18 07:41:39;;;;;;;350.65;14.40;;;;;;;0.08;100.00;98616.69;5039194;28;20028;-71
2021/12/18 07:44:06;;;;;;;530.05;19.52;;;;;;;0.08;100.00;98605.28;5056540;28;20057;-73
2021/12/18 07:46:33;;;;;;;487.55;17.65;;;;;;;0.11;100.00;98603.25;5055477;28;20377;-70
2021/12/18 07:48:59;;;;;;;190.93;12.70;;;;;;;0.12;100.00;98597.03;5056925;28;20087;-71
2021/12/18 07:51:25;;;;;;;266.95;11.50;;;;;;;0.14;100.00;98595.09;5052594;28;20789;-71
2021/12/18 07:53:51;;;;;;;312.85;13.48;;;;;;;0.05;100.00;98595.88;5057023;28;21212;-71
2021/12/18 07:56:16;;;;;;;329.20;14.90;;;;;;;0.04;100.00;98599.47;5057246;28;20127;-74
2021/12/18 07:58:42;;;;;;;267.58;12.35;;;;;;;-0.07;100.00;98604.81;5054757;28;20040;-72
2021/12/18 08:01:07;;;;;;;312.20;10.85;;;;;;;-0.16;100.00;98608.19;5055933;28;20124;-74
2021/12/18 08:03:33;;;;;;;351.48;12.65;;;;;;;-0.31;100.00;98605.09;5058711;28;20037;-71
2021/12/18 08:05:59;;;;;;;271.67;13.20;;;;;;;-0.41;100.00;98609.41;5055896;28;20037;-71
2021/12/18 08:08:24;;;;;;;276.65;16.48;;;;;;;-0.46;100.00;98603.72;5054131;28;20033;-71
2021/12/18 08:10:50;;;;;;;167.77;10.05;;;;;;;-0.58;100.00;98602.94;5053645;28;20067;-71
2021/12/18 08:13:15;;;;;;;194.45;13.18;;;;;;;-0.72;100.00;98609.31;5056343;28;20483;-72
2021/12/18 08:15:41;;;;;;;245.93;17.13;;;;;;;-0.61;100.00;98616.34;5055192;28;20391;-71
2021/12/18 08:18:07;;;;;;;191.95;13.25;;;;;;;-0.51;100.00;98619.88;5054282;28;20033;-70
2021/12/18 08:20:34;;;;;;;151.88;15.43;;;;;;;-0.40;100.00;98616.34;5055942;28;20663;-71
2021/12/18 08:23:00;;;;;;;142.57;11.68;;;;;;;-0.37;100.00;98616.09;5053915;28;20067;-70
2021/12/18 08:25:27;;;;;;;185.80;13.13;;;;;;;-0.35;100.00;98615.00;5055108;28;20125;-71
2021/12/18 08:27:55;;;;;;;132.88;12.60;;;;;;;-0.29;100.00;98618.94;5055209;28;20488;-71
2021/12/18 08:30:22;;;;;;;84.28;12.40;;;;;;;-0.15;100.00;98625.69;5053898;28;20035;-70
2021/12/18 08:32:48;;;;;;;110.43;9.43;;;;;;;0.08;100.00;98626.34;5055621;28;20502;-71
2021/12/18 08:35:13;;;;;;;103.97;10.95;;;;;;;0.06;100.00;98629.13;5024007;28;20056;-71
2021/12/18 08:37:40;;;;;;;132.55;11.38;;;;;;;-0.14;100.00;98622.91;5055560;28;20041;-70
2021/12/18 08:40:07;;;;;;;97.93;11.93;;;;;;;-0.21;100.00;98620.94;5053239;28;20483;-70
2021/12/18 08:42:33;;;;;;;103.80;10.88;;;;;;;-0.22;100.00;98609.56;5056729;28;20131;-72
2021/12/18 08:44:59;;;;;;;132.32;12.80;;;;;;;-0.15;100.00;98616.00;5056543;28;20554;-73
2021/12/18 08:47:25;;;;;;;49.80;10.05;;;;;;;0.10;100.00;98613.91;5056879;28;20483;-70
2021/12/18 08:49:51;;;;;;;72.30;11.07;;;;;;;0.33;100.00;98609.31;5056710;28;20109;-70
2021/12/18 08:52:17;;;;;;;67.45;9.20;;;;;;;0.19;100.00;98608.69;5034062;28;20046;-70
2021/12/18 08:54:43;;;;;;;82.45;8.98;;;;;;;-0.06;100.00;98603.84;5056051;28;20036;-71
2021/12/18 08:57:09;;;;;;;72.68;8.93;;;;;;;0.01;100.00;98607.63;5054909;28;20037;-71
2021/12/18 08:59:37;;;;;;;80.93;7.22;;;;;;;0.15;100.00;98606.44;5054099;28;20088;-71
2021/12/18 09:02:03;;;;;;;68.18;5.70;;;;;;;0.38;100.00;98605.31;5053302;28;20044;-72
2021/12/18 09:04:28;;;;;;;25.35;4.13;;;;;;;0.54;100.00;98602.19;5054451;28;20037;-72
2021/12/18 09:06:54;;;;;;;54.05;4.72;;;;;;;0.83;100.00;98600.47;5055774;28;20048;-71
2021/12/18 09:09:20;;;;;;;33.15;3.47;;;;;;;0.81;100.00;98602.41;5054757;28;20045;-71
2021/12/18 09:11:45;;;;;;;101.22;8.38;;;;;;;0.94;100.00;98596.06;5056765;28;20037;-72
2021/12/18 09:14:11;;;;;;;87.47;6.28;;;;;;;0.86;100.00;98596.75;5056858;28;20045;-71
2021/12/18 09:16:36;;;;;;;66.93;5.90;;;;;;;0.66;100.00;98595.03;5055770;28;20379;-71
2021/12/18 09:19:02;;;;;;;47.17;4.95;;;;;;;0.42;100.00;98603.25;5055492;28;20060;-72
2021/12/18 09:21:28;;;;;;;135.70;8.45;;;;;;;0.40;100.00;98610.47;5056599;28;21086;-71
2021/12/18 09:23:53;;;;;;;137.43;7.35;;;;;;;0.35;100.00;98607.38;5055040;28;20040;-71
2021/12/18 09:26:19;;;;;;;180.93;7.10;;;;;;;0.43;100.00;98610.19;5054695;28;20037;-70
2021/12/18 09:28:44;;;;;;;74.00;4.20;;;;;;;0.57;100.00;98604.56;5055560;28;20550;-70
2021/12/18 09:31:10;;;;;;;164.02;10.15;;;;;;;0.75;100.00;98610.03;5052306;28;20033;-70
2021/12/18 09:33:35;;;;;;;163.57;6.45;;;;;;;0.64;100.00;98610.97;5051823;28;20039;-70
2021/12/18 09:36:01;;;;;;;189.02;7.50;;;;;;;0.83;100.00;98605.75;5054444;28;20078;-71
2021/12/18 09:38:27;;;;;;;114.60;6.40;;;;;;;0.78;100.00;98610.59;5055142;28;20036;-71
2021/12/18 09:40:52;;;;;;;308.38;10.93;;;;;;;0.77;100.00;98608.91;5055782;28;20028;-73
2021/12/18 09:43:18;;;;;;;160.75;11.00;;;;;;;0.83;100.00;98603.09;5058552;28;20936;-70
2021/12/18 09:45:46;;;;;;;253.65;8.48;;;;;;;1.03;100.00;98598.72;5058573;28;20390;-72
2021/12/18 09:48:11;;;;;;;130.25;8.18;;;;;;;1.13;100.00;98590.00;5058087;28;20395;-71
2021/12/18 09:50:38;;;;;;;134.18;7.40;;;;;;;0.99;100.00;98588.56;5058972;28;20214;-73
2021/12/18 09:53:06;;;;;;;47.65;3.38;;;;;;;0.83;100.00;98595.19;5058904;28;20367;-70
2021/12/18 09:55:31;;;;;;;97.88;4.53;;;;;;;1.11;100.00;98587.50;5056817;28;20033;-71
2021/12/18 09:57:57;;;;;;;78.78;4.32;;;;;;;1.24;100.00;98582.78;5057331;28;20142;-71
2021/12/18 10:00:25;;;;;;;84.63;5.80;;;;;;;1.26;100.00;98565.03;5057784;28;20119;-70
2021/12/18 10:02:51;;;;;;;55.08;3.65;;;;;;;1.51;100.00;98566.25;5061094;28;20535;-72
2021/12/18 10:05:29;;;;;;;69.70;5.03;;;;;;;1.69;100.00;98576.94;5060155;28;20470;-70
2021/12/18 10:08:15;;;;;;;44.05;3.17;;;;;;;2.20;100.00;98581.00;5058787;28;20486;-71
2021/12/18 10:11:00;;;;;;;52.97;2.50;;;;;;;2.67;100.00;98581.78;5060967;28;20040;-71
2021/12/18 10:13:25;;;;;;;73.53;2.75;;;;;;;2.75;100.00;98576.59;5060740;28;20029;-70
2021/12/18 10:16:09;;;;;;;17.58;1.35;;;;;;;2.78;100.00;98575.44;5056493;28;20081;-71
2021/12/18 10:18:34;;;;;;;26.00;1.63;;;;;;;2.79;100.00;98574.47;5056273;28;20105;-71
2021/12/18 10:21:13;;;;;;;72.68;4.95;;;;;;;2.17;100.00;98562.78;5056817;28;20516;-71
2021/12/18 10:23:44;;;;;;;51.45;2.67;;;;;;;2.16;100.00;98559.31;5057231;28;20029;-71
2021/12/18 10:26:35;;;;;;;111.70;6.70;;;;;;;2.64;100.00;98575.94;5058295;28;20093;-70
2021/12/18 10:29:01;;;;;;;;;;;;;;;2.73;100.00;98565.31;5056217;28;20037;-71
2021/12/18 10:31:46;;;;;;;61.65;2.13;;;;;;;2.24;100.00;98561.22;5056506;28;19959;-71
2021/12/18 10:34:26;;;;;;;71.72;2.80;;;;;;;2.19;100.00;98568.78;5056926;28;20123;-74
2021/12/18 10:37:13;;;;;;;65.82;2.58;;;;;;;2.29;100.00;98568.72;5060152;28;20511;-70
2021/12/18 10:39:56;;;;;;;48.75;2.22;;;;;;;2.76;100.00;98564.19;5057290;28;20044;-70
2021/12/18 10:42:35;;;;;;;16.27;2.65;;;;;;;2.65;100.00;98559.13;5056953;28;20044;-71
2021/12/18 10:45:10;;;;;;;54.88;3.22;;;;;;;2.62;100.00;98556.75;5060863;28;20032;-71
2021/12/18 10:47:57;;;;;;;29.77;1.92;;;;;;;2.39;100.00;98551.84;5061460;28;20120;-70
2021/12/18 10:50:42;;;;;;;53.28;5.30;;;;;;;2.96;100.00;98544.59;5058006;28;20110;-70
2021/12/18 10:53:11;;;;;;;33.63;8.38;;;;;;;3.03;100.00;98539.50;5056040;28;20598;-71
2021/12/18 10:55:43;;;;;;;31.20;3.75;;;;;;;2.68;100.00;98546.41;5058576;28;20119;-70
2021/12/18 10:58:13;;;;;;;25.40;5.05;;;;;;;2.47;100.00;98548.47;5057265;28;20090;-71
2021/12/18 11:00:47;;;;;;;19.63;2.38;;;;;;;2.65;100.00;98551.19;5057409;28;20055;-71
2021/12/18 11:03:18;;;;;;;20.42;4.88;;;;;;;2.66;100.00;98539.63;5059389;28;20648;-73
2021/12/18 11:06:02;;;;;;;34.97;3.33;;;;;;;2.79;100.00;98548.03;5057108;28;20043;-71
2021/12/18 11:08:27;;;;;;;12.93;5.65;;;;;;;2.57;100.00;98529.91;5055354;28;20032;-70
2021/12/18 11:13:50;;;;;;;10.60;3.70;;;;;;;2.88;100.00;98539.22;5058849;28;20057;-70
2021/12/18 11:16:19;;;;;;;33.22;4.47;;;;;;;3.15;100.00;98534.84;5056335;28;20082;-70
2021/12/18 11:18:46;;;;;;;18.38;4.07;;;;;;;3.35;100.00;98531.06;5058434;28;20040;-71
2021/12/18 11:21:12;;;;;;;24.15;3.65;;;;;;;3.49;100.00;98522.56;5058062;28;20044;-70
2021/12/18 11:23:53;;;;;;;44.92;4.68;;;;;;;3.52;100.00;98521.44;5056751;28;20056;-72
2021/12/18 11:26:21;;;;;;;;;;;;;;;3.57;100.00;98514.69;5054949;28;20067;-70
2021/12/18 11:28:49;;;;;;;106.18;5.45;;;;;;;3.61;100.00;98510.75;5053718;28;19921;-71
2021/12/18 11:31:16;;;;;;;88.85;4.32;;;;;;;3.67;100.00;98501.38;5044686;28;20475;-71
2021/12/18 11:33:41;;;;;;;70.85;4.97;;;;;;;3.81;100.00;98502.59;5056492;28;20020;-70
2021/12/18 11:36:09;;;;;;;80.40;4.97;;;;;;;3.84;100.00;98499.66;5056060;28;20325;-72
2021/12/18 11:38:37;;;;;;;64.78;5.40;;;;;;;3.82;100.00;98491.03;5055815;28;20032;-70
2021/12/18 11:41:03;;;;;;;136.15;6.47;;;;;;;3.39;100.00;98487.41;5054710;28;20039;-70
2021/12/18 11:43:43;;;;;;;88.82;5.25;;;;;;;3.25;100.00;98483.50;5056900;28;20044;-71
2021/12/18 11:46:27;;;;;;;128.43;6.22;;;;;;;3.30;100.00;98483.06;5056427;28;20140;-70
2021/12/18 11:48:58;;;;;;;276.65;8.98;;;;;;;3.34;100.00;98479.91;5056412;28;20044;-74
2021/12/18 11:51:24;;;;;;;105.63;5.75;;;;;;;3.48;100.00;98477.72;5055225;28;20035;-70
2021/12/18 11:53:51;;;;;;;117.53;5.20;;;;;;;3.51;100.00;98474.78;5054462;28;20094;-70
2021/12/18 11:56:17;;;;;;;78.63;5.22;;;;;;;3.51;100.00;98472.97;5055319;28;20028;-70
2021/12/18 11:58:47;;;;;;;265.52;8.27;;;;;;;3.53;100.00;98467.50;5057832;28;20459;-71
2021/12/18 12:01:14;;;;;;;112.78;6.05;;;;;;;3.59;100.00;98467.72;5052463;28;20479;-70
2021/12/18 12:03:52;;;;;;;340.73;9.50;;;;;;;3.63;100.00;98463.75;5059184;28;20415;-74
2021/12/18 12:06:32;;;;;;;305.75;8.93;;;;;;;3.63;100.00;98461.09;5053910;28;20040;-71
2021/12/18 12:09:37;;;;;;;204.93;6.40;;;;;;;3.67;100.00;98468.75;5056386;28;20090;-71
2021/12/18 12:12:06;;;;;;;484.38;13.60;;;;;;;3.56;100.00;98462.72;5054876;28;20057;-71